Terminal Aerodrome Forecast
Issued by NWS

Home | Current Version | Previous Version | Text Only | Print | Product List | Glossary On
Versions: 1 2 3 4 5 6 7 8 9 10 11 12 13 14 15 16
000
FTUS43 KFGF 061700
TAFDVL
TAF
KDVL 061730Z 0618/0718 14013G22KT 6SM -RA BKN010 OVC025
      TEMPO 0618/0621 14012G22KT 3SM -RA BR OVC008
     FM070100 13013KT 4SM -RA BR BKN006 OVC010
     FM070400 15012KT 5SM BR OVC012
     FM071100 15009KT 2SM -RA BR OVC006
      AMD LTD TO CLD VIS AND WIND=

USA.gov is the U.S. government's official web portal to all federal, state and local government web resources and services.